sensor_id;sensor_type;location;lat;lon;timestamp;P1;durP1;ratioP1;P2;durP2;ratioP2
61336;SDS011;47212;41.326;2.104;2022-09-16T00:00:19;11.95;;;5.00;;
61336;SDS011;47212;41.326;2.104;2022-09-16T00:05:38;12.00;;;5.18;;
61336;SDS011;47212;41.326;2.104;2022-09-16T00:10:52;10.63;;;5.80;;
61336;SDS011;47212;41.326;2.104;2022-09-16T00:16:05;14.85;;;5.40;;
61336;SDS011;47212;41.326;2.104;2022-09-16T00:21:17;11.25;;;5.30;;
61336;SDS011;47212;41.326;2.104;2022-09-16T00:26:41;13.13;;;5.15;;
61336;SDS011;47212;41.326;2.104;2022-09-16T00:31:47;10.10;;;4.85;;
61336;SDS011;47212;41.326;2.104;2022-09-16T00:36:49;9.32;;;4.43;;
61336;SDS011;47212;41.326;2.104;2022-09-16T00:41:53;10.13;;;5.03;;
61336;SDS011;47212;41.326;2.104;2022-09-16T00:47:01;8.43;;;3.60;;
61336;SDS011;47212;41.326;2.104;2022-09-16T00:52:06;8.05;;;3.95;;
61336;SDS011;47212;41.326;2.104;2022-09-16T00:57:09;6.50;;;3.78;;
61336;SDS011;47212;41.326;2.104;2022-09-16T01:02:15;10.25;;;3.72;;
61336;SDS011;47212;41.326;2.104;2022-09-16T01:07:25;7.80;;;3.75;;
61336;SDS011;47212;41.326;2.104;2022-09-16T01:12:37;9.90;;;3.85;;
61336;SDS011;47212;41.326;2.104;2022-09-16T01:21:42;7.97;;;3.55;;
61336;SDS011;47212;41.326;2.104;2022-09-16T01:55:00;8.02;;;3.20;;
61336;SDS011;47212;41.326;2.104;2022-09-16T02:00:13;7.78;;;3.42;;
61336;SDS011;47212;41.326;2.104;2022-09-16T02:05:19;7.07;;;3.25;;
61336;SDS011;47212;41.326;2.104;2022-09-16T02:10:55;10.25;;;3.88;;
61336;SDS011;47212;41.326;2.104;2022-09-16T02:16:04;4.90;;;2.90;;
61336;SDS011;47212;41.326;2.104;2022-09-16T02:21:22;8.15;;;3.38;;
61336;SDS011;47212;41.326;2.104;2022-09-16T02:26:37;7.50;;;3.50;;
61336;SDS011;47212;41.326;2.104;2022-09-16T02:31:43;6.60;;;3.57;;
61336;SDS011;47212;41.326;2.104;2022-09-16T02:36:50;8.20;;;2.92;;
61336;SDS011;47212;41.326;2.104;2022-09-16T02:42:01;7.65;;;2.95;;
61336;SDS011;47212;41.326;2.104;2022-09-16T02:47:16;7.00;;;3.28;;
61336;SDS011;47212;41.326;2.104;2022-09-16T02:52:59;7.60;;;3.10;;
61336;SDS011;47212;41.326;2.104;2022-09-16T02:58:58;7.88;;;3.30;;
61336;SDS011;47212;41.326;2.104;2022-09-16T03:04:41;8.32;;;4.00;;
61336;SDS011;47212;41.326;2.104;2022-09-16T03:09:48;11.02;;;3.88;;
61336;SDS011;47212;41.326;2.104;2022-09-16T03:15:11;10.70;;;3.65;;
61336;SDS011;47212;41.326;2.104;2022-09-16T03:20:29;9.52;;;3.40;;
61336;SDS011;47212;41.326;2.104;2022-09-16T03:31:43;8.40;;;3.50;;
61336;SDS011;47212;41.326;2.104;2022-09-16T03:37:16;6.57;;;3.05;;
61336;SDS011;47212;41.326;2.104;2022-09-16T03:42:22;7.35;;;3.20;;
61336;SDS011;47212;41.326;2.104;2022-09-16T03:47:28;5.18;;;2.92;;
61336;SDS011;47212;41.326;2.104;2022-09-16T03:52:34;7.35;;;3.22;;
61336;SDS011;47212;41.326;2.104;2022-09-16T03:57:37;5.63;;;2.80;;
61336;SDS011;47212;41.326;2.104;2022-09-16T04:02:39;8.50;;;3.35;;
61336;SDS011;47212;41.326;2.104;2022-09-16T04:07:43;6.40;;;3.20;;
61336;SDS011;47212;41.326;2.104;2022-09-16T04:12:55;6.80;;;2.80;;
61336;SDS011;47212;41.326;2.104;2022-09-16T04:23:12;4.55;;;2.38;;
61336;SDS011;47212;41.326;2.104;2022-09-16T04:28:28;7.75;;;2.78;;
61336;SDS011;47212;41.326;2.104;2022-09-16T04:33:41;5.32;;;2.22;;
61336;SDS011;47212;41.326;2.104;2022-09-16T04:38:46;4.50;;;2.50;;
61336;SDS011;47212;41.326;2.104;2022-09-16T04:43:49;5.68;;;2.50;;
61336;SDS011;47212;41.326;2.104;2022-09-16T04:49:00;7.72;;;2.47;;
61336;SDS011;47212;41.326;2.104;2022-09-16T04:54:06;6.25;;;2.75;;
61336;SDS011;47212;41.326;2.104;2022-09-16T04:59:11;7.53;;;3.17;;
61336;SDS011;47212;41.326;2.104;2022-09-16T05:04:30;6.93;;;3.53;;
61336;SDS011;47212;41.326;2.104;2022-09-16T05:09:35;6.97;;;3.03;;
61336;SDS011;47212;41.326;2.104;2022-09-16T05:14:41;5.45;;;2.50;;
61336;SDS011;47212;41.326;2.104;2022-09-16T05:19:44;7.18;;;3.13;;
61336;SDS011;47212;41.326;2.104;2022-09-16T05:25:02;5.60;;;3.00;;
61336;SDS011;47212;41.326;2.104;2022-09-16T05:30:05;5.93;;;3.30;;
61336;SDS011;47212;41.326;2.104;2022-09-16T05:35:08;8.15;;;3.53;;
61336;SDS011;47212;41.326;2.104;2022-09-16T05:40:12;10.63;;;4.88;;
61336;SDS011;47212;41.326;2.104;2022-09-16T05:45:24;11.10;;;6.20;;
61336;SDS011;47212;41.326;2.104;2022-09-16T05:55:37;10.48;;;5.38;;
61336;SDS011;47212;41.326;2.104;2022-09-16T06:00:39;11.05;;;5.03;;
61336;SDS011;47212;41.326;2.104;2022-09-16T06:05:41;15.15;;;4.70;;
61336;SDS011;47212;41.326;2.104;2022-09-16T06:10:47;10.35;;;3.85;;
61336;SDS011;47212;41.326;2.104;2022-09-16T06:15:49;8.80;;;3.97;;
61336;SDS011;47212;41.326;2.104;2022-09-16T06:20:55;7.78;;;3.38;;
61336;SDS011;47212;41.326;2.104;2022-09-16T06:25:59;6.18;;;2.95;;
61336;SDS011;47212;41.326;2.104;2022-09-16T06:31:24;8.68;;;3.15;;
61336;SDS011;47212;41.326;2.104;2022-09-16T06:36:35;8.02;;;2.47;;
61336;SDS011;47212;41.326;2.104;2022-09-16T06:41:45;6.30;;;2.60;;
61336;SDS011;47212;41.326;2.104;2022-09-16T06:46:47;9.43;;;2.58;;
61336;SDS011;47212;41.326;2.104;2022-09-16T06:51:55;8.57;;;2.97;;
61336;SDS011;47212;41.326;2.104;2022-09-16T06:56:58;5.10;;;2.45;;
61336;SDS011;47212;41.326;2.104;2022-09-16T07:02:13;7.72;;;2.80;;
61336;SDS011;47212;41.326;2.104;2022-09-16T07:07:15;8.23;;;2.95;;
61336;SDS011;47212;41.326;2.104;2022-09-16T07:12:20;6.68;;;3.33;;
61336;SDS011;47212;41.326;2.104;2022-09-16T07:17:22;6.03;;;2.67;;
61336;SDS011;47212;41.326;2.104;2022-09-16T07:22:29;7.43;;;2.90;;
61336;SDS011;47212;41.326;2.104;2022-09-16T07:27:34;6.45;;;2.97;;
61336;SDS011;47212;41.326;2.104;2022-09-16T07:32:37;8.63;;;3.45;;
61336;SDS011;47212;41.326;2.104;2022-09-16T07:37:40;7.22;;;3.08;;
61336;SDS011;47212;41.326;2.104;2022-09-16T07:42:43;6.88;;;2.85;;
61336;SDS011;47212;41.326;2.104;2022-09-16T07:47:49;7.40;;;2.92;;
61336;SDS011;47212;41.326;2.104;2022-09-16T07:52:54;6.38;;;2.65;;
61336;SDS011;47212;41.326;2.104;2022-09-16T07:57:59;5.53;;;2.05;;
61336;SDS011;47212;41.326;2.104;2022-09-16T08:03:06;4.18;;;2.08;;
61336;SDS011;47212;41.326;2.104;2022-09-16T08:08:10;9.25;;;2.38;;
61336;SDS011;47212;41.326;2.104;2022-09-16T08:13:52;4.82;;;2.10;;
61336;SDS011;47212;41.326;2.104;2022-09-16T08:19:19;5.15;;;1.90;;
61336;SDS011;47212;41.326;2.104;2022-09-16T08:24:23;4.88;;;2.13;;
61336;SDS011;47212;41.326;2.104;2022-09-16T08:29:28;5.53;;;2.33;;
61336;SDS011;47212;41.326;2.104;2022-09-16T08:34:45;4.78;;;2.00;;
61336;SDS011;47212;41.326;2.104;2022-09-16T08:39:52;6.72;;;1.90;;
61336;SDS011;47212;41.326;2.104;2022-09-16T08:50:32;3.45;;;1.77;;
61336;SDS011;47212;41.326;2.104;2022-09-16T08:55:48;4.28;;;2.00;;
61336;SDS011;47212;41.326;2.104;2022-09-16T09:00:56;4.28;;;1.65;;
61336;SDS011;47212;41.326;2.104;2022-09-16T09:12:06;5.15;;;2.20;;
61336;SDS011;47212;41.326;2.104;2022-09-16T09:43:55;5.38;;;2.10;;
61336;SDS011;47212;41.326;2.104;2022-09-16T09:54:30;3.55;;;1.90;;
61336;SDS011;47212;41.326;2.104;2022-09-16T09:59:45;9.50;;;1.58;;
61336;SDS011;47212;41.326;2.104;2022-09-16T10:04:53;5.80;;;2.20;;
61336;SDS011;47212;41.326;2.104;2022-09-16T10:10:02;5.22;;;1.77;;
61336;SDS011;47212;41.326;2.104;2022-09-16T10:20:34;7.75;;;2.22;;
61336;SDS011;47212;41.326;2.104;2022-09-16T10:25:40;5.43;;;2.15;;
61336;SDS011;47212;41.326;2.104;2022-09-16T10:30:55;4.53;;;1.90;;
61336;SDS011;47212;41.326;2.104;2022-09-16T10:36:18;7.03;;;1.80;;
61336;SDS011;47212;41.326;2.104;2022-09-16T10:41:32;5.95;;;1.70;;
61336;SDS011;47212;41.326;2.104;2022-09-16T10:46:55;11.50;;;2.80;;
61336;SDS011;47212;41.326;2.104;2022-09-16T10:52:17;10.32;;;2.30;;
61336;SDS011;47212;41.326;2.104;2022-09-16T10:57:53;8.45;;;2.03;;
61336;SDS011;47212;41.326;2.104;2022-09-16T11:14:02;7.10;;;2.03;;
61336;SDS011;47212;41.326;2.104;2022-09-16T11:42:15;5.65;;;1.80;;
61336;SDS011;47212;41.326;2.104;2022-09-16T11:58:51;5.25;;;2.10;;
61336;SDS011;47212;41.326;2.104;2022-09-16T12:10:24;5.87;;;2.17;;
61336;SDS011;47212;41.326;2.104;2022-09-16T12:20:54;6.88;;;1.75;;
61336;SDS011;47212;41.326;2.104;2022-09-16T12:26:11;6.93;;;2.03;;
61336;SDS011;47212;41.326;2.104;2022-09-16T12:31:20;12.38;;;2.83;;
61336;SDS011;47212;41.326;2.104;2022-09-16T12:36:31;8.50;;;3.78;;
61336;SDS011;47212;41.326;2.104;2022-09-16T12:41:54;6.78;;;2.15;;
61336;SDS011;47212;41.326;2.104;2022-09-16T13:03:47;4.70;;;1.88;;
61336;SDS011;47212;41.326;2.104;2022-09-16T13:08:54;14.13;;;8.30;;
61336;SDS011;47212;41.326;2.104;2022-09-16T13:14:03;5.20;;;2.47;;
61336;SDS011;47212;41.326;2.104;2022-09-16T13:46:54;5.15;;;2.20;;
61336;SDS011;47212;41.326;2.104;2022-09-16T13:52:09;5.43;;;2.08;;
61336;SDS011;47212;41.326;2.104;2022-09-16T14:09:19;5.45;;;1.67;;
61336;SDS011;47212;41.326;2.104;2022-09-16T14:14:42;3.50;;;1.63;;
61336;SDS011;47212;41.326;2.104;2022-09-16T14:20:05;8.48;;;2.17;;
61336;SDS011;47212;41.326;2.104;2022-09-16T14:25:51;6.53;;;2.00;;
61336;SDS011;47212;41.326;2.104;2022-09-16T14:30:56;4.95;;;1.88;;
61336;SDS011;47212;41.326;2.104;2022-09-16T14:36:23;6.03;;;2.35;;
61336;SDS011;47212;41.326;2.104;2022-09-16T14:41:56;5.35;;;1.80;;
61336;SDS011;47212;41.326;2.104;2022-09-16T14:52:58;7.18;;;2.20;;
61336;SDS011;47212;41.326;2.104;2022-09-16T14:58:08;3.92;;;1.50;;
61336;SDS011;47212;41.326;2.104;2022-09-16T15:03:39;4.20;;;1.90;;
61336;SDS011;47212;41.326;2.104;2022-09-16T15:09:26;3.75;;;1.70;;
61336;SDS011;47212;41.326;2.104;2022-09-16T15:14:53;5.30;;;2.50;;
61336;SDS011;47212;41.326;2.104;2022-09-16T15:20:02;8.10;;;2.20;;
61336;SDS011;47212;41.326;2.104;2022-09-16T15:25:17;4.45;;;1.70;;
61336;SDS011;47212;41.326;2.104;2022-09-16T15:30:30;6.57;;;2.22;;
61336;SDS011;47212;41.326;2.104;2022-09-16T15:35:39;8.60;;;2.47;;
61336;SDS011;47212;41.326;2.104;2022-09-16T15:40:59;6.32;;;1.95;;
61336;SDS011;47212;41.326;2.104;2022-09-16T15:46:04;5.63;;;2.10;;
61336;SDS011;47212;41.326;2.104;2022-09-16T15:51:24;3.92;;;1.60;;
61336;SDS011;47212;41.326;2.104;2022-09-16T15:56:39;6.45;;;2.28;;
61336;SDS011;47212;41.326;2.104;2022-09-16T16:01:52;10.95;;;2.53;;
61336;SDS011;47212;41.326;2.104;2022-09-16T16:07:01;7.10;;;1.90;;
61336;SDS011;47212;41.326;2.104;2022-09-16T16:12:11;4.18;;;1.80;;
61336;SDS011;47212;41.326;2.104;2022-09-16T16:17:20;6.43;;;2.08;;
61336;SDS011;47212;41.326;2.104;2022-09-16T16:22:24;8.40;;;2.10;;
61336;SDS011;47212;41.326;2.104;2022-09-16T16:27:36;5.40;;;1.90;;
61336;SDS011;47212;41.326;2.104;2022-09-16T16:32:38;5.18;;;2.00;;
61336;SDS011;47212;41.326;2.104;2022-09-16T16:37:46;3.17;;;1.38;;
61336;SDS011;47212;41.326;2.104;2022-09-16T16:42:56;6.55;;;1.95;;
61336;SDS011;47212;41.326;2.104;2022-09-16T16:48:08;3.45;;;1.30;;
61336;SDS011;47212;41.326;2.104;2022-09-16T16:53:14;3.65;;;1.67;;
61336;SDS011;47212;41.326;2.104;2022-09-16T16:58:21;2.67;;;1.60;;
61336;SDS011;47212;41.326;2.104;2022-09-16T17:03:23;4.00;;;1.75;;
61336;SDS011;47212;41.326;2.104;2022-09-16T17:08:25;1.90;;;1.10;;
61336;SDS011;47212;41.326;2.104;2022-09-16T17:13:39;3.17;;;1.60;;
61336;SDS011;47212;41.326;2.104;2022-09-16T17:18:45;2.78;;;1.17;;
61336;SDS011;47212;41.326;2.104;2022-09-16T17:23:48;1.88;;;1.20;;
61336;SDS011;47212;41.326;2.104;2022-09-16T17:29:04;2.63;;;1.33;;
61336;SDS011;47212;41.326;2.104;2022-09-16T17:34:19;2.80;;;1.02;;
61336;SDS011;47212;41.326;2.104;2022-09-16T17:39:27;3.42;;;1.30;;
61336;SDS011;47212;41.326;2.104;2022-09-16T17:44:29;3.97;;;1.40;;
61336;SDS011;47212;41.326;2.104;2022-09-16T17:49:36;4.95;;;1.52;;
61336;SDS011;47212;41.326;2.104;2022-09-16T17:54:43;2.88;;;1.05;;
61336;SDS011;47212;41.326;2.104;2022-09-16T17:59:44;4.15;;;1.17;;
61336;SDS011;47212;41.326;2.104;2022-09-16T18:04:47;2.65;;;1.30;;
61336;SDS011;47212;41.326;2.104;2022-09-16T18:09:57;3.45;;;1.30;;
61336;SDS011;47212;41.326;2.104;2022-09-16T18:14:59;4.88;;;1.63;;
61336;SDS011;47212;41.326;2.104;2022-09-16T18:20:01;4.13;;;1.48;;
61336;SDS011;47212;41.326;2.104;2022-09-16T18:25:07;2.83;;;1.20;;
61336;SDS011;47212;41.326;2.104;2022-09-16T18:30:19;2.50;;;1.23;;
61336;SDS011;47212;41.326;2.104;2022-09-16T18:35:26;3.70;;;1.27;;
61336;SDS011;47212;41.326;2.104;2022-09-16T18:46:13;3.67;;;1.33;;
61336;SDS011;47212;41.326;2.104;2022-09-16T18:51:37;3.05;;;1.42;;
61336;SDS011;47212;41.326;2.104;2022-09-16T18:56:57;2.63;;;1.45;;
61336;SDS011;47212;41.326;2.104;2022-09-16T19:02:01;6.72;;;4.20;;
61336;SDS011;47212;41.326;2.104;2022-09-16T19:07:05;3.50;;;2.10;;
61336;SDS011;47212;41.326;2.104;2022-09-16T19:12:09;3.28;;;1.90;;
61336;SDS011;47212;41.326;2.104;2022-09-16T19:17:13;3.90;;;2.00;;
61336;SDS011;47212;41.326;2.104;2022-09-16T19:22:16;5.65;;;2.28;;
61336;SDS011;47212;41.326;2.104;2022-09-16T19:27:24;2.85;;;1.70;;
61336;SDS011;47212;41.326;2.104;2022-09-16T19:32:29;3.58;;;1.63;;
61336;SDS011;47212;41.326;2.104;2022-09-16T19:37:32;2.60;;;1.20;;
61336;SDS011;47212;41.326;2.104;2022-09-16T19:42:34;4.63;;;1.67;;
61336;SDS011;47212;41.326;2.104;2022-09-16T19:47:36;3.47;;;2.15;;
61336;SDS011;47212;41.326;2.104;2022-09-16T19:52:38;2.35;;;1.60;;
61336;SDS011;47212;41.326;2.104;2022-09-16T19:57:41;3.47;;;1.73;;
61336;SDS011;47212;41.326;2.104;2022-09-16T20:02:44;3.63;;;1.77;;
61336;SDS011;47212;41.326;2.104;2022-09-16T20:07:50;1.33;;;1.15;;
61336;SDS011;47212;41.326;2.104;2022-09-16T20:13:07;4.00;;;1.70;;
61336;SDS011;47212;41.326;2.104;2022-09-16T20:18:09;2.17;;;1.25;;
61336;SDS011;47212;41.326;2.104;2022-09-16T20:23:17;4.80;;;1.83;;
61336;SDS011;47212;41.326;2.104;2022-09-16T20:28:20;3.70;;;2.00;;
61336;SDS011;47212;41.326;2.104;2022-09-16T20:33:24;4.40;;;2.15;;
61336;SDS011;47212;41.326;2.104;2022-09-16T20:38:38;4.90;;;1.98;;
61336;SDS011;47212;41.326;2.104;2022-09-16T20:43:41;4.93;;;2.00;;
61336;SDS011;47212;41.326;2.104;2022-09-16T20:48:51;3.97;;;1.63;;
61336;SDS011;47212;41.326;2.104;2022-09-16T20:53:58;5.53;;;1.95;;
61336;SDS011;47212;41.326;2.104;2022-09-16T20:59:12;9.18;;;2.80;;
61336;SDS011;47212;41.326;2.104;2022-09-16T21:04:17;7.88;;;1.98;;
61336;SDS011;47212;41.326;2.104;2022-09-16T21:09:21;12.38;;;2.67;;
61336;SDS011;47212;41.326;2.104;2022-09-16T21:14:32;11.05;;;3.40;;
61336;SDS011;47212;41.326;2.104;2022-09-16T21:19:35;14.73;;;3.80;;
61336;SDS011;47212;41.326;2.104;2022-09-16T21:24:37;12.40;;;4.15;;
61336;SDS011;47212;41.326;2.104;2022-09-16T21:29:41;12.18;;;3.80;;
61336;SDS011;47212;41.326;2.104;2022-09-16T21:34:51;13.43;;;3.03;;
61336;SDS011;47212;41.326;2.104;2022-09-16T21:39:54;8.40;;;2.30;;
61336;SDS011;47212;41.326;2.104;2022-09-16T21:45:02;11.32;;;2.95;;
61336;SDS011;47212;41.326;2.104;2022-09-16T21:50:05;13.02;;;3.15;;
61336;SDS011;47212;41.326;2.104;2022-09-16T21:55:11;11.32;;;3.38;;
61336;SDS011;47212;41.326;2.104;2022-09-16T22:00:14;10.63;;;2.88;;
61336;SDS011;47212;41.326;2.104;2022-09-16T22:05:22;10.27;;;2.83;;
61336;SDS011;47212;41.326;2.104;2022-09-16T22:10:48;6.63;;;2.22;;
61336;SDS011;47212;41.326;2.104;2022-09-16T22:15:58;8.38;;;2.58;;
61336;SDS011;47212;41.326;2.104;2022-09-16T22:21:05;6.32;;;2.10;;
61336;SDS011;47212;41.326;2.104;2022-09-16T22:26:10;6.70;;;2.10;;
61336;SDS011;47212;41.326;2.104;2022-09-16T22:31:14;11.32;;;2.70;;
61336;SDS011;47212;41.326;2.104;2022-09-16T22:36:19;11.18;;;2.50;;
61336;SDS011;47212;41.326;2.104;2022-09-16T22:41:24;10.77;;;2.60;;
61336;SDS011;47212;41.326;2.104;2022-09-16T22:46:27;11.05;;;2.78;;
61336;SDS011;47212;41.326;2.104;2022-09-16T22:51:34;5.72;;;1.80;;
61336;SDS011;47212;41.326;2.104;2022-09-16T22:56:44;7.43;;;2.05;;
61336;SDS011;47212;41.326;2.104;2022-09-16T23:01:53;5.97;;;2.20;;
61336;SDS011;47212;41.326;2.104;2022-09-16T23:06:59;9.05;;;2.08;;
61336;SDS011;47212;41.326;2.104;2022-09-16T23:12:01;10.50;;;2.47;;
61336;SDS011;47212;41.326;2.104;2022-09-16T23:17:05;5.28;;;1.95;;
61336;SDS011;47212;41.326;2.104;2022-09-16T23:22:09;9.15;;;2.58;;
61336;SDS011;47212;41.326;2.104;2022-09-16T23:27:11;8.25;;;2.53;;
61336;SDS011;47212;41.326;2.104;2022-09-16T23:32:13;7.85;;;2.50;;
61336;SDS011;47212;41.326;2.104;2022-09-16T23:37:15;6.38;;;2.20;;
61336;SDS011;47212;41.326;2.104;2022-09-16T23:42:17;9.73;;;2.15;;
61336;SDS011;47212;41.326;2.104;2022-09-16T23:47:19;10.85;;;5.25;;
61336;SDS011;47212;41.326;2.104;2022-09-16T23:52:23;9.48;;;3.45;;
61336;SDS011;47212;41.326;2.104;2022-09-16T23:57:26;6.68;;;2.60;;
